createdAt,value
2022-08-28T00:02:17.635Z,6.07
2022-08-28T00:07:19.487Z,7.20
2022-08-28T00:12:21.739Z,7.32
2022-08-28T00:17:25.183Z,7.55
2022-08-28T00:22:27.028Z,9.15
2022-08-28T00:27:47.448Z,10.45
2022-08-28T00:32:49.323Z,9.32
2022-08-28T00:37:52.160Z,8.73
2022-08-28T00:42:55.363Z,7.85
2022-08-28T00:47:57.539Z,8.18
2022-08-28T00:53:01.286Z,9.60
2022-08-28T00:58:04.137Z,9.15
2022-08-28T01:03:07.000Z,9.30
2022-08-28T01:08:09.109Z,11.20
2022-08-28T01:13:14.890Z,11.88
2022-08-28T01:18:18.354Z,9.43
2022-08-28T01:23:24.349Z,9.05
2022-08-28T01:28:26.366Z,10.27
2022-08-28T01:33:28.501Z,9.68
2022-08-28T01:38:30.466Z,9.93
2022-08-28T01:43:32.382Z,10.38
2022-08-28T01:48:37.708Z,10.77
2022-08-28T01:53:40.325Z,11.88
2022-08-28T01:58:42.594Z,13.95
2022-08-28T02:03:44.835Z,12.73
2022-08-28T02:08:47.007Z,17.95
2022-08-28T02:13:50.839Z,12.55
2022-08-28T02:18:53.182Z,13.27
2022-08-28T02:23:55.104Z,13.32
2022-08-28T02:28:58.661Z,12.60
2022-08-28T02:34:00.485Z,13.95
2022-08-28T02:39:02.673Z,13.75
2022-08-28T02:44:04.602Z,13.15
2022-08-28T02:49:06.521Z,15.75
2022-08-28T02:54:08.446Z,13.98
2022-08-28T02:59:10.873Z,13.07
2022-08-28T03:04:12.938Z,15.25
2022-08-28T03:09:14.865Z,15.52
2022-08-28T03:14:16.745Z,12.25
2022-08-28T03:19:18.667Z,12.95
2022-08-28T03:24:20.792Z,12.70
2022-08-28T03:29:23.058Z,12.82
2022-08-28T03:34:24.931Z,12.95
2022-08-28T03:39:26.833Z,11.60
2022-08-28T03:44:28.661Z,13.10
2022-08-28T03:49:31.149Z,12.43
2022-08-28T03:54:33.158Z,12.13
2022-08-28T03:59:35.735Z,12.95
2022-08-28T04:04:37.609Z,12.43
2022-08-28T04:09:39.476Z,16.45
2022-08-28T04:14:41.614Z,11.65
2022-08-28T04:19:45.084Z,12.90
2022-08-28T04:24:47.105Z,12.15
2022-08-28T04:29:49.173Z,12.88
2022-08-28T04:34:51.321Z,13.07
2022-08-28T04:39:53.549Z,15.85
2022-08-28T04:45:00.022Z,14.02
2022-08-28T04:50:02.495Z,11.90
2022-08-28T04:55:05.090Z,11.82
2022-08-28T05:00:09.076Z,13.07
2022-08-28T05:05:11.770Z,12.82
2022-08-28T05:10:13.682Z,12.90
2022-08-28T05:15:15.549Z,12.65
2022-08-28T05:20:17.435Z,12.23
2022-08-28T05:25:19.338Z,13.00
2022-08-28T05:30:21.300Z,13.20
2022-08-28T05:35:23.165Z,13.10
2022-08-28T05:40:25.133Z,13.32
2022-08-28T05:45:27.078Z,15.77
2022-08-28T05:50:28.953Z,13.60
2022-08-28T05:55:31.061Z,14.15
2022-08-28T06:00:33.038Z,13.18
2022-08-28T06:05:34.984Z,12.90
2022-08-28T06:10:44.067Z,13.57
2022-08-28T06:15:48.399Z,14.68
2022-08-28T06:20:50.418Z,13.57
2022-08-28T06:25:53.770Z,13.45
2022-08-28T06:31:18.609Z,13.57
2022-08-28T06:36:18.256Z,14.23
2022-08-28T06:41:20.336Z,14.93
2022-08-28T06:46:22.911Z,14.45
2022-08-28T06:51:25.156Z,14.60
2022-08-28T06:56:27.354Z,14.73
2022-08-28T07:01:35.010Z,13.13
2022-08-28T07:06:41.745Z,11.77
2022-08-28T07:11:46.682Z,10.90
2022-08-28T07:16:48.893Z,10.85
2022-08-28T07:21:50.821Z,10.52
2022-08-28T07:26:53.005Z,10.13
2022-08-28T07:31:57.487Z,10.25
2022-08-28T07:37:04.135Z,7.78
2022-08-28T07:42:06.269Z,8.43
2022-08-28T07:47:08.653Z,10.05
2022-08-28T07:52:12.010Z,8.07
2022-08-28T07:57:15.175Z,7.82
2022-08-28T08:02:17.081Z,6.07
2022-08-28T08:07:20.414Z,5.70
2022-08-28T08:12:22.396Z,5.20
2022-08-28T08:17:24.325Z,4.57
2022-08-28T08:22:26.349Z,4.68
2022-08-28T08:27:28.606Z,4.82
2022-08-28T08:32:30.494Z,4.50
2022-08-28T08:37:32.411Z,4.85
2022-08-28T08:42:36.464Z,3.90
2022-08-28T08:47:53.986Z,3.35
2022-08-28T08:53:29.960Z,4.53
2022-08-28T08:58:41.151Z,3.25
2022-08-28T09:04:07.886Z,3.53
2022-08-28T09:09:30.108Z,3.08
2022-08-28T09:14:57.860Z,3.80
2022-08-28T09:20:00.185Z,5.90
2022-08-28T09:25:02.041Z,3.30
2022-08-28T09:30:10.526Z,3.53
2022-08-28T09:35:23.639Z,3.53
2022-08-28T09:40:49.734Z,3.60
2022-08-28T09:46:16.315Z,3.35
2022-08-28T09:51:21.213Z,4.05
2022-08-28T09:56:30.605Z,5.03
2022-08-28T10:01:35.578Z,5.05
2022-08-28T10:06:37.610Z,5.15
2022-08-28T10:12:11.119Z,5.00
2022-08-28T10:17:38.194Z,5.25
2022-08-28T10:22:49.366Z,4.85
2022-08-28T10:28:36.659Z,4.43
2022-08-28T10:33:59.278Z,4.90
2022-08-28T10:39:32.361Z,4.22
2022-08-28T10:44:55.309Z,3.63
2022-08-28T10:50:04.821Z,3.13
2022-08-28T10:55:19.164Z,3.85
2022-08-28T11:00:23.714Z,3.22
2022-08-28T11:05:33.766Z,5.72
2022-08-28T11:10:35.553Z,2.92
2022-08-28T11:15:50.402Z,2.80
2022-08-28T11:21:09.818Z,3.22
2022-08-28T11:26:14.657Z,3.13
2022-08-28T11:31:19.127Z,2.90
2022-08-28T11:36:32.406Z,2.60
2022-08-28T11:41:38.466Z,3.40
2022-08-28T11:46:45.769Z,2.58
2022-08-28T11:52:02.826Z,3.23
2022-08-28T11:57:15.486Z,2.47
2022-08-28T12:02:39.261Z,2.38
2022-08-28T12:07:47.184Z,2.90
2022-08-28T12:18:13.232Z,4.20
2022-08-28T12:23:31.697Z,4.57
2022-08-28T12:28:45.262Z,3.85
2022-08-28T12:33:57.777Z,4.95
2022-08-28T12:39:00.301Z,5.80
2022-08-28T12:44:02.303Z,6.80
2022-08-28T12:49:34.825Z,6.75
2022-08-28T12:54:36.694Z,6.38
2022-08-28T12:59:41.796Z,6.93
2022-08-28T13:05:01.925Z,6.47
2022-08-28T13:10:18.432Z,6.90
2022-08-28T13:15:51.586Z,6.80
2022-08-28T13:21:10.737Z,7.35
2022-08-28T13:26:13.095Z,7.72
2022-08-28T13:31:42.909Z,8.45
2022-08-28T13:36:48.274Z,8.60
2022-08-28T13:41:55.017Z,11.25
2022-08-28T13:46:58.490Z,8.25
2022-08-28T13:52:04.208Z,8.32
2022-08-28T13:57:07.428Z,7.10
2022-08-28T14:02:31.269Z,7.88
2022-08-28T14:07:33.545Z,7.95
2022-08-28T14:12:35.631Z,8.23
2022-08-28T14:17:37.494Z,8.30
2022-08-28T14:22:39.374Z,9.23
2022-08-28T14:27:44.869Z,7.78
2022-08-28T14:32:46.759Z,9.82
2022-08-28T14:37:48.634Z,13.30
2022-08-28T14:42:51.200Z,8.55
2022-08-28T14:47:53.052Z,9.25
2022-08-28T14:52:54.886Z,7.85
2022-08-28T14:57:56.715Z,8.65
2022-08-28T15:02:59.923Z,8.57
2022-08-28T15:08:03.135Z,8.50
2022-08-28T15:13:05.689Z,10.55
2022-08-28T15:18:11.103Z,10.50
2022-08-28T15:23:15.264Z,10.98
2022-08-28T15:28:17.453Z,10.98
2022-08-28T15:33:19.292Z,10.63
2022-08-28T15:38:21.379Z,10.85
2022-08-28T15:43:23.230Z,12.10
2022-08-28T15:48:25.077Z,12.57
2022-08-28T15:53:26.913Z,10.80
2022-08-28T15:58:29.378Z,11.85
2022-08-28T16:03:31.513Z,11.73
2022-08-28T16:08:33.674Z,11.73
2022-08-28T16:13:35.565Z,11.88
2022-08-28T16:18:37.872Z,11.93
2022-08-28T16:23:40.341Z,11.82
2022-08-28T16:28:43.265Z,12.48
2022-08-28T16:33:45.315Z,12.27
2022-08-28T16:38:49.161Z,12.30
2022-08-28T16:44:01.521Z,14.35
2022-08-28T16:49:03.568Z,11.57
2022-08-28T16:54:05.794Z,11.73
2022-08-28T16:59:10.229Z,13.07
2022-08-28T17:04:14.339Z,12.10
2022-08-28T17:09:16.202Z,15.27
2022-08-28T17:14:18.175Z,12.93
2022-08-28T17:19:20.978Z,13.60
2022-08-28T17:24:23.101Z,12.80
2022-08-28T17:29:26.156Z,12.85
2022-08-28T17:34:30.262Z,12.25
2022-08-28T17:39:32.628Z,12.98
2022-08-28T17:44:35.382Z,13.40
2022-08-28T17:49:37.405Z,13.25
2022-08-28T17:54:39.474Z,13.35
2022-08-28T17:59:41.273Z,13.40
2022-08-28T18:04:44.051Z,13.98
2022-08-28T18:09:46.306Z,13.35
2022-08-28T18:14:48.217Z,14.40
2022-08-28T18:19:50.924Z,13.40
2022-08-28T18:24:53.109Z,13.77
2022-08-28T18:29:54.978Z,14.32
2022-08-28T18:34:56.818Z,14.60
2022-08-28T18:39:58.723Z,14.27
2022-08-28T18:45:01.649Z,14.82
2022-08-28T18:50:05.565Z,13.52
2022-08-28T18:55:09.111Z,13.85
2022-08-28T19:00:11.889Z,14.60
2022-08-28T19:05:14.901Z,14.70
2022-08-28T19:10:32.060Z,14.45
2022-08-28T19:15:35.823Z,14.77
2022-08-28T19:20:37.713Z,14.00
2022-08-28T19:25:40.377Z,15.38
2022-08-28T19:30:42.323Z,18.15
2022-08-28T19:35:44.278Z,14.73
2022-08-28T19:40:46.179Z,16.40
2022-08-28T19:45:48.097Z,14.40
2022-08-28T19:51:01.477Z,15.20
2022-08-28T19:56:07.974Z,14.43
2022-08-28T20:01:10.565Z,14.68
2022-08-28T20:06:12.698Z,20.00
2022-08-28T20:11:24.723Z,15.23
2022-08-28T20:16:27.973Z,14.20
2022-08-28T20:21:37.336Z,13.98
2022-08-28T20:26:40.507Z,14.07
2022-08-28T20:31:44.779Z,13.77
2022-08-28T20:36:47.285Z,15.88
2022-08-28T20:41:49.413Z,13.73
2022-08-28T20:46:53.674Z,12.35
2022-08-28T20:51:57.434Z,14.65
2022-08-28T20:57:02.493Z,13.75
2022-08-28T21:02:05.605Z,15.77
2022-08-28T21:07:08.077Z,12.85
2022-08-28T21:12:11.013Z,13.15
2022-08-28T21:17:12.888Z,12.27
2022-08-28T21:22:18.880Z,12.90
2022-08-28T21:27:22.237Z,13.70
2022-08-28T21:32:24.905Z,13.85
2022-08-28T21:37:27.097Z,14.98
2022-08-28T21:42:29.057Z,15.57
2022-08-28T21:47:31.471Z,15.02
2022-08-28T21:52:33.502Z,15.00
2022-08-28T21:57:35.480Z,15.60
2022-08-28T22:02:37.454Z,15.73
2022-08-28T22:07:40.334Z,15.43
2022-08-28T22:12:42.161Z,15.52
2022-08-28T22:17:44.529Z,17.38
2022-08-28T22:23:04.765Z,15.20
2022-08-28T22:28:06.831Z,18.35
2022-08-28T22:33:10.001Z,15.38
2022-08-28T22:38:11.836Z,14.98
2022-08-28T22:43:14.415Z,16.40
2022-08-28T22:48:17.996Z,16.00
2022-08-28T22:53:21.360Z,16.80
2022-08-28T22:58:23.441Z,15.55
2022-08-28T23:03:25.648Z,15.52
2022-08-28T23:08:30.786Z,15.18
2022-08-28T23:19:06.073Z,16.13
2022-08-28T23:23:59.588Z,15.38
2022-08-28T23:29:02.535Z,15.77
2022-08-28T23:34:05.501Z,16.85
2022-08-28T23:39:07.385Z,15.10
2022-08-28T23:44:09.405Z,15.70
2022-08-28T23:49:12.869Z,17.83
2022-08-28T23:54:14.774Z,15.50
2022-08-28T23:59:17.258Z,16.13
